Time;durP1;ratioP1;P1;durP2;ratioP2;P2;SDS_P1;SDS_P2;PMS_P1;PMS_P2;Temp;Humidity;BMP_temperature;BMP_pressure;BME280_temperature;BME280_humidity;BME280_pressure;Samples;Min_cycle;Max_cycle;Signal;HPM_P1;HPM_P2
2023/05/16 00:01:51;;;;;;;16.40;7.90;;;;;;;12.39;72.94;98544.56;105142;1256;111103;-82
2023/05/16 00:04:20;;;;;;;18.40;8.60;;;;;;;12.40;73.05;98543.10;105126;1258;97816;-81
2023/05/16 00:06:48;;;;;;;17.70;9.20;;;;;;;12.40;73.06;98547.14;105198;1254;107916;-81
2023/05/16 00:09:19;;;;;;;16.50;8.60;;;;;;;12.41;73.00;98552.42;105135;1267;96579;-82
2023/05/16 00:11:47;;;;;;;17.10;8.50;;;;;;;12.40;73.03;98554.28;105193;1265;96526;-80
2023/05/16 00:14:16;;;;;;;16.40;8.40;;;;;;;12.39;73.08;98553.29;105138;1267;109627;-83
2023/05/16 00:16:44;;;;;;;18.60;8.80;;;;;;;12.37;73.14;98552.70;105182;1255;96583;-81
2023/05/16 00:19:15;;;;;;;18.00;9.00;;;;;;;12.37;73.10;98553.66;105241;1254;107520;-82
2023/05/16 00:21:43;;;;;;;17.50;8.90;;;;;;;12.36;73.17;98560.67;105219;1254;97079;-82
2023/05/16 00:24:11;;;;;;;15.20;8.50;;;;;;;12.34;73.19;98566.98;105176;1256;97928;-81
2023/05/16 00:26:39;;;;;;;17.40;8.30;;;;;;;12.33;73.07;98567.98;105143;1266;110130;-80
2023/05/16 00:29:08;;;;;;;17.40;8.50;;;;;;;12.33;73.22;98565.52;105253;1254;96580;-81
2023/05/16 00:31:36;;;;;;;16.80;8.60;;;;;;;12.32;73.26;98561.74;105149;1260;107983;-81
2023/05/16 00:34:07;;;;;;;17.70;8.40;;;;;;;12.31;73.15;98563.91;105275;1251;98019;-81
2023/05/16 00:36:35;;;;;;;16.50;8.70;;;;;;;12.30;73.23;98566.98;105165;1257;96612;-82
2023/05/16 00:39:03;;;;;;;16.50;8.90;;;;;;;12.30;73.22;98566.88;105283;1254;108752;-79
2023/05/16 00:41:33;;;;;;;17.50;9.10;;;;;;;12.29;73.27;98570.83;105292;1254;97170;-81
2023/05/16 00:44:01;;;;;;;16.40;8.30;;;;;;;12.29;73.34;98576.50;105322;1267;107623;-81
2023/05/16 00:46:29;;;;;;;17.90;8.70;;;;;;;12.30;73.45;98580.86;105253;1254;96518;-81
2023/05/16 00:48:57;;;;;;;18.30;8.90;;;;;;;12.32;73.46;98583.36;105150;1264;96507;-80
2023/05/16 00:51:25;;;;;;;17.50;8.80;;;;;;;12.32;73.33;98584.48;105280;1256;110717;-83
2023/05/16 00:53:55;;;;;;;16.10;8.80;;;;;;;12.30;73.40;98583.89;105163;1267;96610;-81
2023/05/16 00:56:23;;;;;;;17.10;8.60;;;;;;;12.27;73.34;98588.05;105206;1256;108478;-82
2023/05/16 00:58:51;;;;;;;17.90;8.80;;;;;;;12.22;73.31;98591.03;105225;1265;96646;-81
2023/05/16 01:01:24;;;;;;;16.60;8.50;;;;;;;12.15;73.24;98596.22;105254;1254;97028;-81
2023/05/16 01:03:52;;;;;;;16.50;8.30;;;;;;;12.10;73.36;98602.59;105348;1254;109891;-81
2023/05/16 01:06:20;;;;;;;17.70;8.60;;;;;;;12.03;73.30;98604.71;105368;1265;96689;-81
2023/05/16 01:08:49;;;;;;;15.40;8.00;;;;;;;11.97;73.33;98602.60;105214;1254;107203;-81
2023/05/16 01:11:32;;;;;;;16.00;8.40;;;;;;;11.90;73.31;98609.68;105312;1265;96602;-81
2023/05/16 01:14:23;;;;;;;15.50;8.70;;;;;;;11.83;73.37;98614.73;105398;1263;96571;-81
2023/05/16 01:16:57;;;;;;;15.00;7.60;;;;;;;11.76;73.37;98616.39;105356;1254;109415;-81
2023/05/16 01:19:32;;;;;;;15.60;8.50;;;;;;;11.70;73.39;98618.84;105409;1263;96645;-81
2023/05/16 01:22:16;;;;;;;18.20;8.10;;;;;;;11.64;73.32;98615.27;105367;1254;108904;-82
2023/05/16 01:25:09;;;;;;;14.60;7.70;;;;;;;11.57;73.32;98612.09;105293;1254;97826;-80
2023/05/16 01:27:38;;;;;;;15.00;7.80;;;;;;;11.52;73.40;98612.23;105322;1256;96575;-81
2023/05/16 01:30:15;;;;;;;17.30;8.60;;;;;;;11.47;73.37;98611.20;105271;1258;109651;-81
2023/05/16 01:32:44;;;;;;;18.00;9.20;;;;;;;11.43;73.44;98609.59;105226;1252;97826;-78
2023/05/16 01:35:16;;;;;;;17.60;8.60;;;;;;;11.38;73.38;98604.83;105263;1267;108847;-82
2023/05/16 01:37:51;;;;;;;17.30;8.40;;;;;;;11.34;73.51;98609.94;105284;1256;96613;-81
2023/05/16 01:40:34;;;;;;;15.80;8.10;;;;;;;11.30;73.48;98612.73;105177;1251;97400;-81
2023/05/16 01:43:08;;;;;;;16.00;8.10;;;;;;;11.26;73.51;98612.03;105312;1266;111164;-83
2023/05/16 01:48:24;;;;;;;14.20;8.10;;;;;;;11.23;73.33;98607.34;101897;1292;636168;-81
2023/05/16 01:50:56;;;;;;;15.40;8.50;;;;;;;11.15;73.49;98605.31;104241;1272;94328;-81
2023/05/16 01:53:32;;;;;;;18.80;8.70;;;;;;;11.11;73.55;98608.83;104350;1271;94348;-82
2023/05/16 01:56:01;;;;;;;15.90;8.20;;;;;;;11.07;73.49;98600.28;104376;1270;107205;-81
2023/05/16 01:58:33;;;;;;;14.90;8.10;;;;;;;11.03;73.62;98603.41;104436;1272;95282;-82
2023/05/16 02:01:04;;;;;;;16.30;8.70;;;;;;;11.00;73.50;98606.34;104103;1272;236968;-83
2023/05/16 02:03:33;;;;;;;15.60;7.90;;;;;;;10.98;73.61;98601.21;104353;1279;94936;-81
2023/05/16 02:06:01;;;;;;;18.50;8.60;;;;;;;10.96;73.66;98602.78;104469;1277;94341;-83
2023/05/16 02:08:30;;;;;;;15.10;7.90;;;;;;;10.93;73.67;98601.27;104524;1267;107438;-80
2023/05/16 02:10:58;;;;;;;15.80;7.40;;;;;;;10.90;73.70;98605.39;104376;1270;94331;-82
2023/05/16 02:13:26;;;;;;;16.90;8.00;;;;;;;10.85;73.57;98609.14;104347;1269;108721;-84
2023/05/16 02:15:54;;;;;;;14.20;7.20;;;;;;;10.79;73.51;98610.17;104324;1269;95255;-83
2023/05/16 02:18:22;;;;;;;14.90;7.20;;;;;;;10.72;73.54;98609.09;104583;1269;95251;-83
2023/05/16 02:20:50;;;;;;;16.10;7.00;;;;;;;10.68;73.56;98602.50;104467;1269;109906;-81
2023/05/16 02:23:18;;;;;;;14.20;7.10;;;;;;;10.64;73.57;98606.91;104513;1268;95332;-81
2023/05/16 02:25:46;;;;;;;20.30;7.70;;;;;;;10.60;73.61;98608.11;104296;1277;107889;-85
2023/05/16 02:28:14;;;;;;;12.60;6.60;;;;;;;10.55;73.61;98614.70;104439;1264;95304;-82
2023/05/16 02:30:42;;;;;;;15.70;7.00;;;;;;;10.51;73.55;98618.44;104497;1266;96085;-83
2023/05/16 02:33:10;;;;;;;13.80;6.80;;;;;;;10.48;73.64;98625.41;104658;1266;107913;-81
2023/05/16 02:35:38;;;;;;;13.30;6.50;;;;;;;10.45;73.73;98628.30;105035;1269;96252;-81
2023/05/16 02:38:06;;;;;;;13.70;7.00;;;;;;;10.43;73.71;98629.10;104941;1269;108871;-79
2023/05/16 02:40:34;;;;;;;13.40;6.80;;;;;;;10.41;73.67;98631.91;104836;1259;95330;-81
2023/05/16 02:43:02;;;;;;;13.40;6.50;;;;;;;10.39;73.77;98628.35;105040;1259;96070;-82
2023/05/16 02:45:30;;;;;;;13.80;6.90;;;;;;;10.38;73.80;98621.55;104873;1260;108794;-82
2023/05/16 02:47:58;;;;;;;16.00;7.30;;;;;;;10.39;73.89;98625.04;104822;1260;95264;-81
2023/05/16 02:50:26;;;;;;;14.60;7.40;;;;;;;10.39;73.90;98626.95;104825;1270;108688;-81
2023/05/16 02:52:54;;;;;;;14.30;7.20;;;;;;;10.40;73.88;98629.54;104796;1271;95221;-81
2023/05/16 02:55:22;;;;;;;14.70;7.30;;;;;;;10.40;73.89;98627.41;104912;1260;95332;-81
2023/05/16 02:57:51;;;;;;;14.40;7.50;;;;;;;10.42;73.96;98627.80;104794;1271;109657;-81
2023/05/16 03:00:20;;;;;;;15.40;8.20;;;;;;;10.42;73.88;98629.39;104829;1270;96209;-80
2023/05/16 03:02:47;;;;;;;15.50;7.90;;;;;;;10.44;73.98;98633.70;104814;1261;108871;-83
2023/05/16 03:05:16;;;;;;;17.50;8.00;;;;;;;10.45;73.97;98631.66;104801;1262;95877;-81
2023/05/16 03:07:44;;;;;;;17.00;8.30;;;;;;;10.45;74.04;98632.55;104750;1261;95290;-80
2023/05/16 03:10:12;;;;;;;15.90;8.10;;;;;;;10.47;74.17;98632.18;104902;1257;108653;-81
2023/05/16 03:12:39;;;;;;;16.60;8.00;;;;;;;10.51;74.16;98633.50;104732;1265;95220;-81
2023/05/16 03:15:08;;;;;;;17.50;8.80;;;;;;;10.55;74.15;98632.12;104794;1270;107771;-80
2023/05/16 03:17:35;;;;;;;16.30;8.10;;;;;;;10.60;74.25;98631.59;104739;1259;96559;-81
2023/05/16 03:20:07;;;;;;;17.90;8.90;;;;;;;10.64;74.26;98630.68;104792;1262;95244;-80
2023/05/16 03:22:35;;;;;;;16.60;8.40;;;;;;;10.67;74.36;98637.19;104687;1270;107702;-81
2023/05/16 03:25:04;;;;;;;18.70;8.90;;;;;;;10.71;74.28;98643.08;104704;1267;95194;-80
2023/05/16 03:27:32;;;;;;;16.50;8.00;;;;;;;10.77;74.43;98650.66;104727;1263;107481;-80
2023/05/16 03:30:00;;;;;;;17.20;8.70;;;;;;;10.80;74.51;98652.45;104679;1263;95333;-81
2023/05/16 03:32:27;;;;;;;18.90;9.20;;;;;;;10.84;74.41;98659.08;105086;1260;95163;-81
2023/05/16 03:34:55;;;;;;;19.50;9.80;;;;;;;10.87;74.42;98658.11;105275;1260;107647;-80
2023/05/16 03:37:24;;;;;;;17.20;8.80;;;;;;;10.91;74.53;98657.11;104792;1269;95272;-80
2023/05/16 03:39:52;;;;;;;17.00;8.70;;;;;;;10.95;74.43;98657.13;106109;1257;107275;-81
2023/05/16 03:42:31;;;;;;;15.70;8.20;;;;;;;11.00;74.47;98663.61;105629;1260;95236;-80
2023/05/16 03:45:00;;;;;;;15.30;7.40;;;;;;;11.07;74.57;98665.76;105672;1262;95326;-80
2023/05/16 03:47:30;;;;;;;15.60;6.80;;;;;;;11.12;74.59;98656.63;104858;1270;107929;-80
2023/05/16 03:49:58;;;;;;;14.70;7.50;;;;;;;11.20;74.67;98662.24;105060;1264;95250;-80
2023/05/16 03:52:25;;;;;;;13.40;7.10;;;;;;;11.28;74.81;98665.09;104948;1263;107462;-80
2023/05/16 03:54:53;;;;;;;13.50;7.20;;;;;;;11.40;74.79;98669.67;104915;1269;95256;-90
2023/05/16 03:57:21;;;;;;;14.30;6.90;;;;;;;11.50;74.76;98672.70;104987;1260;95272;-83
2023/05/16 03:59:49;;;;;;;12.60;6.30;;;;;;;11.60;74.72;98673.68;104890;1259;108317;-85
2023/05/16 04:02:17;;;;;;;12.10;6.30;;;;;;;11.68;74.82;98677.68;105140;1257;95224;-81
2023/05/16 04:04:46;;;;;;;12.60;6.30;;;;;;;11.72;74.78;98683.84;104872;1262;107785;-83
2023/05/16 04:07:14;;;;;;;12.00;5.80;;;;;;;11.75;74.65;98686.50;104771;1272;95240;-85
2023/05/16 04:09:57;;;;;;;10.50;5.60;;;;;;;11.74;74.58;98675.16;105106;1261;95254;-80
2023/05/16 04:12:25;;;;;;;11.50;5.20;;;;;;;11.75;74.56;98669.44;104814;1260;108960;-84
2023/05/16 04:14:56;;;;;;;11.40;5.50;;;;;;;11.78;74.58;98667.09;104998;1264;95177;-87
2023/05/16 04:17:26;;;;;;;9.50;5.30;;;;;;;11.82;74.64;98669.00;104770;1263;108508;-84
2023/05/16 04:19:55;;;;;;;12.10;5.50;;;;;;;11.88;74.70;98665.84;104868;1262;95252;-85
2023/05/16 04:22:23;;;;;;;13.30;5.30;;;;;;;11.96;74.71;98660.95;104904;1258;95262;-86
2023/05/16 04:24:51;;;;;;;9.40;4.70;;;;;;;12.05;74.72;98665.02;104879;1263;107218;-81
2023/05/16 04:27:22;;;;;;;14.10;5.70;;;;;;;12.14;74.82;98667.58;104866;1260;96220;-82
2023/05/16 04:29:58;;;;;;;9.30;5.10;;;;;;;12.24;74.74;98667.05;104914;1269;107562;-90
2023/05/16 04:33:15;;;;;;;11.00;5.00;;;;;;;12.37;74.94;98660.98;104925;1269;95253;-88
2023/05/16 04:35:47;;;;;;;9.50;4.80;;;;;;;12.48;74.93;98660.55;104848;1263;95249;-89
2023/05/16 04:38:15;;;;;;;11.20;5.30;;;;;;;12.59;74.82;98662.14;104798;1263;108617;-90
2023/05/16 04:40:43;;;;;;;9.80;4.60;;;;;;;12.71;74.79;98664.29;104873;1257;95310;-87
2023/05/16 04:43:11;;;;;;;8.30;4.30;;;;;;;12.83;74.73;98665.05;104898;1271;106696;-83
2023/05/16 04:45:41;;;;;;;8.10;4.60;;;;;;;12.93;74.73;98671.98;104952;1258;96117;-84
2023/05/16 04:48:10;;;;;;;7.40;3.70;;;;;;;13.04;74.76;98675.67;105424;1267;95858;-83
2023/05/16 04:50:38;;;;;;;9.30;4.60;;;;;;;13.23;75.05;98675.96;105190;1260;108676;-83
2023/05/16 04:53:06;;;;;;;10.10;4.40;;;;;;;13.69;75.90;98678.70;105226;1269;95250;-81
2023/05/16 04:55:34;;;;;;;10.80;4.80;;;;;;;14.19;76.43;98676.78;104921;1260;107291;-83
2023/05/16 04:58:02;;;;;;;7.40;4.50;;;;;;;14.51;76.04;98677.05;105242;1260;95232;-84
2023/05/16 05:00:30;;;;;;;7.60;4.00;;;;;;;14.53;75.29;98674.52;105179;1260;95839;-83
2023/05/16 05:02:59;;;;;;;8.80;4.20;;;;;;;14.48;74.72;98684.05;105153;1260;108558;-85
2023/05/16 05:05:27;;;;;;;7.50;4.10;;;;;;;14.46;74.50;98688.40;105214;1260;95284;-88
2023/05/16 05:07:57;;;;;;;8.60;4.10;;;;;;;14.47;74.44;98688.30;105237;1257;108856;-87
2023/05/16 05:10:30;;;;;;;8.70;4.70;;;;;;;14.50;74.38;98683.54;105365;1262;96121;-91
2023/05/16 05:12:59;;;;;;;9.50;4.20;;;;;;;14.55;74.33;98682.19;105971;1260;95166;-91
2023/05/16 05:15:26;;;;;;;7.30;3.90;;;;;;;14.61;74.21;98692.83;105743;1267;108287;-83
2023/05/16 05:17:55;;;;;;;6.90;3.70;;;;;;;14.68;74.20;98695.42;105926;1257;96212;-82
2023/05/16 05:20:23;;;;;;;7.20;4.10;;;;;;;14.76;74.22;98695.95;105716;1254;107626;-84
2023/05/16 05:22:56;;;;;;;6.40;4.00;;;;;;;14.83;74.14;98693.25;105645;1254;95247;-89
2023/05/16 05:25:24;;;;;;;5.90;3.50;;;;;;;14.90;74.12;98687.27;105464;1257;95237;-83
2023/05/16 05:27:53;;;;;;;7.60;4.10;;;;;;;14.94;73.99;98688.81;105539;1254;108575;-90
2023/05/16 05:30:20;;;;;;;11.00;4.20;;;;;;;14.95;73.75;98689.98;105640;1257;95330;-83
2023/05/16 05:32:48;;;;;;;7.00;3.90;;;;;;;14.97;73.84;98697.69;105996;1257;107742;-84
2023/05/16 05:35:16;;;;;;;8.50;4.30;;;;;;;14.98;73.75;98705.60;105551;1269;95198;-87
2023/05/16 05:37:45;;;;;;;5.60;3.60;;;;;;;15.01;73.74;98710.52;105578;1257;95253;-82
2023/05/16 05:40:13;;;;;;;7.40;3.60;;;;;;;15.06;73.71;98713.98;105418;1257;108543;-87
2023/05/16 05:42:41;;;;;;;7.00;3.90;;;;;;;15.11;73.72;98705.04;105423;1266;95295;-87
2023/05/16 05:45:15;;;;;;;6.20;3.90;;;;;;;15.20;73.70;98700.96;105405;1254;105662;-89
2023/05/16 05:47:43;;;;;;;7.70;3.80;;;;;;;15.28;73.59;98704.45;105549;1254;95288;-77
2023/05/16 05:50:11;;;;;;;5.80;3.60;;;;;;;15.36;73.47;98709.61;105128;1257;95793;-77
2023/05/16 05:52:39;;;;;;;7.50;4.10;;;;;;;15.41;73.32;98720.35;105265;1257;109920;-82
2023/05/16 05:55:08;;;;;;;6.20;3.50;;;;;;;15.49;73.32;98730.48;105207;1267;95333;-87
2023/05/16 05:57:36;;;;;;;9.70;4.00;;;;;;;15.56;73.37;98737.31;105544;1254;105816;-86
2023/05/16 06:00:06;;;;;;;7.30;3.70;;;;;;;15.63;73.34;98740.03;105472;1254;97960;-85
2023/05/16 06:02:34;;;;;;;5.90;3.40;;;;;;;15.70;73.18;98733.05;105546;1257;96607;-83
2023/05/16 06:05:03;;;;;;;4.80;3.50;;;;;;;15.77;73.17;98731.52;105520;1254;110027;-84
2023/05/16 06:07:31;;;;;;;5.70;3.50;;;;;;;15.81;73.01;98731.29;105380;1257;97917;-87
2023/05/16 06:10:03;;;;;;;7.20;3.70;;;;;;;15.88;72.95;98732.92;105333;1260;107084;-85
2023/05/16 06:12:32;;;;;;;4.50;3.20;;;;;;;15.95;72.99;98734.42;105381;1264;96634;-83
2023/05/16 06:15:03;;;;;;;5.80;3.30;;;;;;;16.00;72.89;98734.80;105408;1254;96615;-87
2023/05/16 06:17:31;;;;;;;5.80;3.50;;;;;;;16.04;72.68;98737.98;105444;1255;109637;-86
2023/05/16 06:19:59;;;;;;;8.00;3.90;;;;;;;16.12;72.65;98734.86;105358;1260;96594;-87
2023/05/16 06:22:27;;;;;;;7.10;4.00;;;;;;;16.22;72.71;98737.61;105478;1257;109602;-89
2023/05/16 06:24:56;;;;;;;8.00;3.90;;;;;;;16.30;72.69;98735.14;105491;1257;96577;-87
2023/05/16 06:27:24;;;;;;;7.80;3.50;;;;;;;16.40;72.68;98740.45;105352;1264;96610;-86
2023/05/16 06:29:52;;;;;;;7.40;4.30;;;;;;;16.53;72.46;98748.74;105120;1254;111148;-87
2023/05/16 06:32:23;;;;;;;9.50;4.90;;;;;;;16.66;72.66;98754.97;105420;1265;97028;-88
2023/05/16 06:34:51;;;;;;;10.90;4.50;;;;;;;16.78;72.77;98754.12;105292;1254;107650;-87
2023/05/16 06:37:25;;;;;;;8.20;4.80;;;;;;;16.88;72.65;98755.95;105348;1258;96611;-88
2023/05/16 06:39:59;;;;;;;7.50;4.20;;;;;;;16.96;72.48;98757.66;105469;1254;96956;-91
2023/05/16 06:42:27;;;;;;;8.20;4.30;;;;;;;17.03;72.49;98747.30;105541;1267;109401;-87
2023/05/16 06:44:54;;;;;;;6.00;4.00;;;;;;;17.07;72.36;98746.88;105228;1254;97518;-86
2023/05/16 06:47:23;;;;;;;6.60;4.30;;;;;;;17.10;72.10;98749.58;105302;1257;108994;-86
2023/05/16 06:49:52;;;;;;;8.30;4.30;;;;;;;17.15;72.05;98754.41;105355;1254;97525;-86
2023/05/16 06:52:24;;;;;;;7.50;3.80;;;;;;;17.21;72.17;98761.10;105497;1254;96613;-89
2023/05/16 06:54:52;;;;;;;9.30;4.00;;;;;;;17.27;72.08;98772.15;105444;1254;109518;-89
2023/05/16 06:57:20;;;;;;;5.40;3.90;;;;;;;17.29;71.74;98767.49;105252;1274;96670;-84
2023/05/16 06:59:48;;;;;;;8.60;4.00;;;;;;;17.31;71.69;98764.91;105468;1254;107662;-85
2023/05/16 07:02:16;;;;;;;5.90;3.40;;;;;;;17.36;71.67;98761.18;105461;1254;96594;-83
2023/05/16 07:04:45;;;;;;;5.60;3.50;;;;;;;17.42;71.58;98758.42;105434;1254;97523;-84
2023/05/16 07:07:14;;;;;;;7.40;3.50;;;;;;;17.49;71.55;98770.08;105650;1253;108966;-82
2023/05/16 07:09:42;;;;;;;6.70;3.80;;;;;;;17.55;71.31;98779.43;105359;1254;96631;-84
2023/05/16 07:12:10;;;;;;;5.60;3.50;;;;;;;17.60;71.15;98781.95;105294;1254;108162;-83
2023/05/16 07:14:39;;;;;;;7.20;3.70;;;;;;;17.64;71.19;98774.91;105345;1254;96762;-85
2023/05/16 07:17:08;;;;;;;5.00;3.40;;;;;;;17.69;71.06;98777.71;105528;1254;97525;-88
2023/05/16 07:19:36;;;;;;;6.60;3.80;;;;;;;17.74;70.97;98775.94;105448;1266;109401;-83
2023/05/16 07:22:04;;;;;;;6.10;3.70;;;;;;;17.83;71.02;98777.52;105373;1254;96677;-82
2023/05/16 07:24:32;;;;;;;7.20;3.30;;;;;;;17.89;70.70;98771.54;105348;1254;108109;-83
2023/05/16 07:27:00;;;;;;;4.90;3.10;;;;;;;17.89;70.64;98774.42;105379;1257;96603;-83
2023/05/16 07:29:29;;;;;;;8.30;3.60;;;;;;;17.93;70.60;98780.66;105397;1257;97535;-82
2023/05/16 07:31:58;;;;;;;4.90;3.20;;;;;;;18.03;70.78;98778.16;105379;1257;109968;-84
2023/05/16 07:34:26;;;;;;;8.30;3.40;;;;;;;18.10;70.61;98772.73;105475;1254;96607;-84
2023/05/16 07:36:54;;;;;;;5.70;3.40;;;;;;;18.18;70.40;98774.34;105343;1257;107891;-84
2023/05/16 07:39:22;;;;;;;5.30;3.30;;;;;;;18.27;70.37;98779.12;105464;1254;96585;-84
2023/05/16 07:41:50;;;;;;;5.50;3.30;;;;;;;18.36;70.27;98778.51;105422;1256;96939;-85
2023/05/16 07:44:18;;;;;;;4.90;3.20;;;;;;;18.46;70.09;98771.48;105468;1253;109240;-85
2023/05/16 07:46:46;;;;;;;4.60;3.30;;;;;;;18.57;70.05;98771.35;105516;1257;96597;-82
2023/05/16 07:49:15;;;;;;;4.90;3.20;;;;;;;18.64;69.99;98768.38;105046;1255;108785;-88
2023/05/16 07:51:43;;;;;;;4.20;3.30;;;;;;;18.70;69.68;98773.48;105063;1257;97203;-90
2023/05/16 07:54:10;;;;;;;5.90;3.60;;;;;;;18.72;69.57;98773.61;105697;1257;96533;-88
2023/05/16 07:56:38;;;;;;;7.60;4.00;;;;;;;18.75;69.61;98781.73;105689;1257;109386;-87
2023/05/16 07:59:06;;;;;;;7.40;3.50;;;;;;;18.86;69.66;98782.55;105650;1257;97390;-87
2023/05/16 08:01:36;;;;;;;5.90;3.60;;;;;;;18.99;69.64;98783.77;105486;1257;108310;-89
2023/05/16 08:04:04;;;;;;;4.60;3.20;;;;;;;19.10;69.50;98788.34;105533;1254;96587;-88
2023/05/16 08:06:33;;;;;;;5.50;3.30;;;;;;;19.17;69.34;98783.02;105503;1254;97795;-90
2023/05/16 08:09:01;;;;;;;8.90;4.10;;;;;;;19.23;69.05;98776.15;105697;1257;111100;-88
2023/05/16 08:11:29;;;;;;;6.30;3.20;;;;;;;19.26;68.97;98784.00;105779;1254;96590;-88
2023/05/16 08:13:57;;;;;;;5.30;3.60;;;;;;;19.30;68.75;98790.52;105798;1254;108917;-89
2023/05/16 08:16:25;;;;;;;5.90;3.20;;;;;;;19.35;68.58;98791.98;105628;1254;96607;-88
2023/05/16 08:18:54;;;;;;;7.20;3.30;;;;;;;19.36;68.49;98795.23;105619;1254;96516;-89
2023/05/16 08:21:22;;;;;;;4.20;3.40;;;;;;;19.44;68.43;98791.67;105307;1257;109931;-88
2023/05/16 08:23:50;;;;;;;4.10;3.20;;;;;;;19.49;67.93;98787.90;105085;1270;96769;-89
2023/05/16 08:26:18;;;;;;;5.00;3.30;;;;;;;19.42;67.76;98785.84;105163;1256;107376;-90
2023/05/16 08:28:46;;;;;;;5.30;3.50;;;;;;;19.43;67.91;98791.40;105132;1257;96613;-89
2023/05/16 08:31:15;;;;;;;6.20;3.20;;;;;;;19.49;67.85;98788.58;105108;1257;97829;-88
2023/05/16 08:33:43;;;;;;;4.40;3.00;;;;;;;19.56;67.73;98786.01;105044;1257;111133;-89
2023/05/16 08:36:11;;;;;;;5.70;3.80;;;;;;;19.64;67.84;98791.23;104976;1260;96657;-89
2023/05/16 08:38:39;;;;;;;5.20;3.30;;;;;;;19.68;67.55;98795.20;105073;1257;107350;-88
2023/05/16 08:41:07;;;;;;;6.40;3.40;;;;;;;19.72;67.42;98792.84;105077;1254;97666;-89
2023/05/16 08:43:35;;;;;;;5.90;3.70;;;;;;;19.73;67.10;98787.48;104918;1256;96588;-89
2023/05/16 08:46:07;;;;;;;4.70;3.10;;;;;;;19.66;66.57;98788.11;105125;1254;110365;-89
2023/05/16 08:48:36;;;;;;;6.40;3.80;;;;;;;19.67;66.71;98792.99;105153;1254;96600;-88
2023/05/16 08:51:06;;;;;;;6.10;3.60;;;;;;;19.71;66.62;98791.86;105033;1267;107648;-89
2023/05/16 08:53:41;;;;;;;5.20;3.20;;;;;;;19.74;66.75;98792.35;105149;1257;96510;-90
2023/05/16 08:56:13;;;;;;;10.10;3.50;;;;;;;19.77;66.19;98795.97;105031;1260;96616;-90
2023/05/16 08:58:40;;;;;;;5.30;3.30;;;;;;;19.74;66.02;98799.10;105171;1254;109873;-89
2023/05/16 09:01:09;;;;;;;6.80;3.70;;;;;;;19.73;66.04;98800.62;105145;1256;96616;-89
2023/05/16 09:03:38;;;;;;;5.90;3.40;;;;;;;19.76;66.10;98806.20;105094;1257;107635;-90
2023/05/16 09:06:06;;;;;;;4.40;3.20;;;;;;;19.81;66.03;98797.95;105060;1260;96731;-89
2023/05/16 09:08:35;;;;;;;10.10;4.20;;;;;;;19.86;66.04;98800.39;105148;1257;96603;-88
2023/05/16 09:11:04;;;;;;;5.60;3.70;;;;;;;19.92;65.76;98800.38;105119;1257;109050;-89
2023/05/16 09:13:32;;;;;;;6.00;3.50;;;;;;;19.91;65.74;98802.45;105075;1258;96572;-90
2023/05/16 09:16:17;;;;;;;4.40;3.20;;;;;;;19.96;65.57;98806.15;105007;1265;108865;-90
2023/05/16 09:18:54;;;;;;;4.90;2.90;;;;;;;20.04;65.48;98808.61;105047;1257;96589;-88
2023/05/16 09:21:33;;;;;;;5.40;3.10;;;;;;;20.06;65.27;98806.16;105124;1257;96655;-89
2023/05/16 09:24:06;;;;;;;4.10;3.00;;;;;;;20.06;65.15;98803.98;105063;1257;109956;-89
2023/05/16 09:26:37;;;;;;;6.60;3.10;;;;;;;20.10;65.04;98798.42;105086;1257;96584;-89
2023/05/16 09:29:12;;;;;;;4.80;3.00;;;;;;;20.13;64.77;98792.94;105166;1257;108880;-90
2023/05/16 09:31:41;;;;;;;3.70;2.70;;;;;;;20.13;64.64;98791.24;105039;1254;97895;-91
2023/05/16 09:34:11;;;;;;;4.00;3.00;;;;;;;20.09;64.46;98791.83;105116;1254;97298;-91
2023/05/16 09:36:39;;;;;;;2.90;2.40;;;;;;;20.12;64.44;98783.39;105092;1254;110510;-88
2023/05/16 09:39:14;;;;;;;4.10;3.20;;;;;;;20.21;64.29;98794.21;105166;1257;96605;-89
2023/05/16 09:41:42;;;;;;;3.40;2.60;;;;;;;20.28;63.89;98799.29;105067;1269;107632;-89
2023/05/16 09:44:11;;;;;;;5.30;3.20;;;;;;;20.33;63.90;98797.60;105040;1257;97976;-88
2023/05/16 09:46:39;;;;;;;6.40;3.20;;;;;;;20.38;64.15;98791.44;105173;1259;97080;-89
2023/05/16 09:49:11;;;;;;;5.10;3.40;;;;;;;20.35;63.84;98789.65;105013;1261;109946;-89
2023/05/16 09:51:40;;;;;;;7.10;3.40;;;;;;;20.31;63.60;98793.02;104892;1277;96574;-89
2023/05/16 09:54:08;;;;;;;8.80;4.10;;;;;;;20.34;63.15;98787.02;105117;1254;108669;-90
2023/05/16 09:56:50;;;;;;;6.80;3.10;;;;;;;20.35;63.39;98781.79;105105;1257;97537;-90
2023/05/16 09:59:18;;;;;;;5.10;3.00;;;;;;;20.40;62.97;98784.41;105060;1257;96621;-90
2023/05/16 10:01:47;;;;;;;3.40;2.90;;;;;;;20.53;63.15;98787.41;105068;1254;109196;-89
2023/05/16 10:04:15;;;;;;;3.40;2.60;;;;;;;20.55;62.63;98787.55;105078;1254;96616;-90
2023/05/16 10:06:45;;;;;;;3.60;2.60;;;;;;;20.47;62.21;98786.64;105010;1265;108882;-87
2023/05/16 10:09:15;;;;;;;4.80;3.20;;;;;;;20.42;62.42;98785.23;105206;1258;97814;-89
2023/05/16 10:11:44;;;;;;;5.80;3.10;;;;;;;20.44;62.19;98791.09;105279;1257;96707;-89
2023/05/16 10:14:16;;;;;;;4.10;2.80;;;;;;;20.50;62.16;98789.52;105088;1266;109689;-90
2023/05/16 10:16:47;;;;;;;18.70;7.30;;;;;;;20.60;62.24;98783.55;105138;1257;97538;-87
2023/05/16 10:19:20;;;;;;;10.90;4.10;;;;;;;20.63;62.20;98786.25;105084;1254;107630;-89
2023/05/16 10:21:54;;;;;;;6.10;3.80;;;;;;;20.70;62.00;98785.17;105175;1260;96603;-87
2023/05/16 10:24:28;;;;;;;6.70;3.10;;;;;;;20.72;61.68;98782.25;105063;1270;96667;-87
2023/05/16 10:26:56;;;;;;;7.50;4.10;;;;;;;20.66;61.29;98783.83;105013;1260;111115;-88
2023/05/16 10:29:25;;;;;;;5.90;3.40;;;;;;;20.61;61.77;98777.12;105145;1254;97518;-88
2023/05/16 10:31:54;;;;;;;4.60;3.00;;;;;;;20.59;61.38;98783.66;105079;1260;107639;-88
2023/05/16 10:34:22;;;;;;;12.20;6.90;;;;;;;20.65;61.32;98783.77;105195;1258;96602;-89
2023/05/16 10:36:51;;;;;;;7.90;4.60;;;;;;;20.61;61.26;98778.17;105181;1258;96619;-87
2023/05/16 10:39:20;;;;;;;6.30;3.60;;;;;;;20.48;61.11;98778.27;105198;1258;109270;-88
2023/05/16 10:41:48;;;;;;;6.20;3.30;;;;;;;20.38;60.72;98772.77;105162;1257;97909;-88
2023/05/16 10:44:16;;;;;;;6.40;3.50;;;;;;;20.37;60.60;98772.68;105157;1257;108824;-89
2023/05/16 10:46:46;;;;;;;4.40;3.10;;;;;;;20.45;60.82;98770.45;105058;1258;96586;-90
2023/05/16 10:49:20;;;;;;;5.10;2.90;;;;;;;20.53;60.52;98769.20;105288;1254;96582;-87
2023/05/16 10:52:06;;;;;;;5.90;3.50;;;;;;;20.56;60.29;98774.27;105168;1256;110641;-90
2023/05/16 10:54:36;;;;;;;5.20;3.10;;;;;;;20.60;60.37;98782.36;105181;1268;97946;-89
2023/05/16 10:57:24;;;;;;;4.70;2.80;;;;;;;20.70;60.33;98783.97;105129;1254;108834;-89
2023/05/16 10:59:54;;;;;;;19.70;11.80;;;;;;;20.73;60.34;98779.81;105158;1259;96683;-90
2023/05/16 11:02:28;;;;;;;9.60;4.70;;;;;;;20.74;60.18;98790.64;105111;1254;96584;-89
2023/05/16 11:04:58;;;;;;;10.00;4.50;;;;;;;20.81;60.06;98790.94;105031;1259;110029;-89
2023/05/16 11:07:33;;;;;;;3.30;2.90;;;;;;;20.97;60.10;98791.02;105163;1253;96590;-88
2023/05/16 11:10:04;;;;;;;5.10;3.00;;;;;;;21.18;60.13;98785.80;105056;1266;107810;-90
2023/05/16 11:12:51;;;;;;;6.30;2.80;;;;;;;21.40;59.62;98783.00;105096;1256;96549;-89
2023/05/16 11:15:31;;;;;;;6.70;3.10;;;;;;;21.67;59.68;98785.30;105257;1254;96507;-89
2023/05/16 11:18:49;;;;;;;4.80;3.50;;;;;;;21.77;59.65;98785.02;105150;1257;109509;-90
2023/05/16 11:21:17;;;;;;;6.20;3.50;;;;;;;21.67;59.05;98783.06;105151;1254;97969;-89
2023/05/16 11:24:24;;;;;;;5.10;3.40;;;;;;;21.61;59.31;98783.63;105285;1258;107607;-89
2023/05/16 11:26:52;;;;;;;7.30;2.80;;;;;;;21.66;59.39;98794.91;105276;1254;96605;-89
2023/05/16 11:29:21;;;;;;;6.50;3.10;;;;;;;21.73;59.27;98791.41;105485;1257;97959;-89
2023/05/16 11:31:49;;;;;;;5.90;3.20;;;;;;;21.83;59.19;98792.89;105302;1258;109501;-89
2023/05/16 11:34:18;;;;;;;7.00;3.10;;;;;;;21.90;59.23;98791.27;105343;1258;96593;-89
2023/05/16 11:36:47;;;;;;;6.50;3.50;;;;;;;21.94;58.97;98787.02;105285;1254;106701;-82